createdAt,value
2022-11-22T00:00:43.794Z,15.67
2022-11-22T00:03:11.307Z,15.03
2022-11-22T00:05:38.510Z,13.40
2022-11-22T00:08:06.340Z,14.17
2022-11-22T00:10:33.964Z,15.83
2022-11-22T00:13:01.245Z,12.70
2022-11-22T00:15:29.722Z,13.13
2022-11-22T00:17:57.326Z,18.70
2022-11-22T00:20:24.614Z,14.73
2022-11-22T00:22:52.206Z,13.97
2022-11-22T00:25:19.778Z,12.73
2022-11-22T00:27:47.039Z,14.33
2022-11-22T00:30:14.338Z,18.70
2022-11-22T00:32:41.509Z,18.20
2022-11-22T00:35:10.034Z,19.63
2022-11-22T00:37:38.001Z,20.50
2022-11-22T00:40:06.561Z,18.27
2022-11-22T00:42:33.788Z,17.13
2022-11-22T00:45:01.052Z,14.37
2022-11-22T00:47:28.200Z,15.20
2022-11-22T00:49:55.359Z,18.50
2022-11-22T00:52:22.629Z,17.27
2022-11-22T00:54:54.539Z,17.93
2022-11-22T00:57:22.870Z,19.83
2022-11-22T00:59:50.127Z,21.77
2022-11-22T01:02:17.509Z,22.70
2022-11-22T01:04:44.831Z,22.10
2022-11-22T01:07:12.333Z,21.93
2022-11-22T01:09:39.859Z,17.47
2022-11-22T01:12:07.980Z,21.20
2022-11-22T01:14:35.192Z,21.10
2022-11-22T01:17:02.341Z,22.23
2022-11-22T01:19:29.971Z,19.70
2022-11-22T01:21:57.471Z,20.27
2022-11-22T01:24:24.827Z,20.67
2022-11-22T01:26:52.037Z,17.67
2022-11-22T01:29:19.183Z,18.23
2022-11-22T01:31:46.442Z,20.67
2022-11-22T01:34:13.648Z,17.97
2022-11-22T01:36:40.825Z,18.87
2022-11-22T01:39:08.129Z,14.40
2022-11-22T01:41:35.442Z,23.10
2022-11-22T01:44:25.548Z,19.63
2022-11-22T01:47:00.533Z,15.98
2022-11-22T01:49:57.023Z,21.60
2022-11-22T01:52:29.439Z,18.10
2022-11-22T01:55:02.814Z,23.50
2022-11-22T01:57:37.158Z,20.47
2022-11-22T02:00:09.166Z,17.23
2022-11-22T02:02:50.812Z,19.83
2022-11-22T02:05:22.850Z,13.23
2022-11-22T02:08:19.800Z,20.80
2022-11-22T02:10:53.570Z,21.03
2022-11-22T02:13:23.342Z,15.83
2022-11-22T02:15:52.205Z,12.10
2022-11-22T02:18:19.644Z,13.77
2022-11-22T02:20:47.266Z,13.10
2022-11-22T02:23:29.940Z,10.90
2022-11-22T02:26:01.638Z,12.10
2022-11-22T02:28:38.599Z,11.20
2022-11-22T02:31:06.467Z,11.67
2022-11-22T02:33:33.753Z,14.43
2022-11-22T02:36:01.238Z,9.97
2022-11-22T02:38:35.065Z,13.10
2022-11-22T02:41:12.396Z,10.50
2022-11-22T02:43:44.822Z,13.60
2022-11-22T02:46:23.619Z,11.87
2022-11-22T02:48:51.153Z,10.87
2022-11-22T02:51:20.355Z,10.33
2022-11-22T02:53:50.296Z,10.27
2022-11-22T02:56:19.067Z,11.43
2022-11-22T02:58:46.762Z,13.87
2022-11-22T03:01:14.505Z,12.27
2022-11-22T03:03:41.858Z,11.10
2022-11-22T03:06:09.060Z,13.50
2022-11-22T03:08:36.303Z,10.80
2022-11-22T03:11:03.599Z,12.80
2022-11-22T03:13:31.003Z,10.83
2022-11-22T03:15:58.238Z,12.73
2022-11-22T03:18:25.929Z,17.17
2022-11-22T03:20:53.298Z,12.60
2022-11-22T03:23:20.712Z,9.73
2022-11-22T03:25:47.929Z,11.93
2022-11-22T03:28:15.095Z,9.33
2022-11-22T03:30:42.997Z,12.57
2022-11-22T03:33:10.400Z,12.53
2022-11-22T03:35:37.844Z,11.03
2022-11-22T03:38:05.588Z,11.82
2022-11-22T03:40:33.356Z,12.10
2022-11-22T03:43:02.256Z,13.77
2022-11-22T03:45:30.593Z,14.80
2022-11-22T03:47:58.009Z,13.93
2022-11-22T03:50:25.830Z,14.70
2022-11-22T03:52:53.193Z,17.33
2022-11-22T03:55:20.348Z,15.60
2022-11-22T03:57:47.719Z,15.03
2022-11-22T04:00:15.508Z,15.33
2022-11-22T04:02:44.128Z,13.57
2022-11-22T04:05:11.542Z,14.47
2022-11-22T04:07:38.946Z,15.00
2022-11-22T04:10:07.591Z,17.00
2022-11-22T04:12:35.133Z,19.57
2022-11-22T04:15:08.570Z,16.90
2022-11-22T04:17:43.369Z,17.13
2022-11-22T04:20:49.760Z,14.60
2022-11-22T04:23:23.136Z,15.10
2022-11-22T04:25:55.284Z,17.40
2022-11-22T04:28:54.148Z,15.57
2022-11-22T04:31:31.200Z,15.63
2022-11-22T04:33:58.432Z,14.63
2022-11-22T04:36:25.560Z,19.83
2022-11-22T04:38:52.777Z,16.43
2022-11-22T04:41:20.152Z,12.80
2022-11-22T04:44:06.055Z,14.80
2022-11-22T04:46:33.331Z,15.53
2022-11-22T04:49:00.514Z,12.23
2022-11-22T04:51:46.461Z,14.17
2022-11-22T04:54:13.763Z,16.57
2022-11-22T04:56:40.985Z,14.87
2022-11-22T04:59:08.161Z,16.40
2022-11-22T05:01:35.553Z,13.57
2022-11-22T05:04:02.759Z,17.33
2022-11-22T05:06:29.981Z,13.07
2022-11-22T05:08:57.621Z,12.97
2022-11-22T05:11:24.787Z,11.67
2022-11-22T05:13:52.179Z,12.17
2022-11-22T05:16:19.444Z,14.03
2022-11-22T05:18:59.344Z,10.17
2022-11-22T05:21:29.741Z,14.65
2022-11-22T05:23:57.308Z,12.23
2022-11-22T05:26:31.026Z,15.80
2022-11-22T05:28:59.308Z,13.57
2022-11-22T05:31:27.720Z,12.50
2022-11-22T05:33:57.144Z,10.23
2022-11-22T05:36:25.310Z,11.37
2022-11-22T05:38:53.135Z,10.10
2022-11-22T05:41:20.613Z,10.03
2022-11-22T05:43:47.910Z,7.97
2022-11-22T05:46:25.164Z,9.40
2022-11-22T05:48:54.851Z,6.90
2022-11-22T05:51:30.627Z,7.57
2022-11-22T05:54:01.089Z,3.53
2022-11-22T05:56:28.298Z,7.87
2022-11-22T05:58:55.746Z,3.78
2022-11-22T06:01:24.607Z,2.00
2022-11-22T06:03:52.673Z,2.33
2022-11-22T06:06:20.163Z,1.77
2022-11-22T06:08:48.740Z,2.83
2022-11-22T06:11:17.098Z,5.22
2022-11-22T06:13:47.167Z,10.65
2022-11-22T06:16:15.531Z,11.65
2022-11-22T06:18:43.353Z,3.75
2022-11-22T06:21:17.157Z,1.42
2022-11-22T06:23:45.059Z,2.33
2022-11-22T06:26:17.007Z,6.07
2022-11-22T06:28:45.807Z,3.50
2022-11-22T06:31:19.924Z,8.07
2022-11-22T06:33:47.557Z,5.15
2022-11-22T06:36:35.486Z,1.60
2022-11-22T06:39:03.859Z,3.40
2022-11-22T06:41:36.901Z,4.68
2022-11-22T06:44:09.667Z,3.15
2022-11-22T06:46:38.345Z,5.20
2022-11-22T06:49:05.672Z,3.03
2022-11-22T06:51:33.497Z,4.03
2022-11-22T06:54:00.882Z,2.83
2022-11-22T06:56:36.073Z,2.75
2022-11-22T06:59:05.779Z,4.85
2022-11-22T07:01:35.174Z,4.70
2022-11-22T07:04:03.708Z,2.97
2022-11-22T07:06:37.206Z,3.38
2022-11-22T07:09:10.633Z,3.70
2022-11-22T07:11:39.519Z,6.68
2022-11-22T07:14:08.644Z,3.28
2022-11-22T07:16:38.280Z,5.28
2022-11-22T07:19:06.777Z,4.97
2022-11-22T07:21:35.568Z,5.18
2022-11-22T07:24:06.094Z,3.92
2022-11-22T07:26:33.449Z,8.07
2022-11-22T07:29:00.661Z,8.32
2022-11-22T07:31:28.467Z,6.53
2022-11-22T07:33:58.906Z,3.83
2022-11-22T07:36:28.789Z,1.60
2022-11-22T07:38:56.601Z,2.78
2022-11-22T07:41:23.883Z,4.00
2022-11-22T07:43:53.039Z,1.67
2022-11-22T07:46:31.725Z,3.90
2022-11-22T07:49:01.771Z,3.22
2022-11-22T07:51:29.917Z,2.20
2022-11-22T07:53:58.046Z,3.88
2022-11-22T07:56:25.276Z,2.60
2022-11-22T07:58:52.466Z,3.97
2022-11-22T08:01:21.026Z,3.55
2022-11-22T08:03:48.405Z,4.03
2022-11-22T08:06:16.054Z,3.45
2022-11-22T08:08:44.201Z,4.13
2022-11-22T08:11:12.018Z,1.70
2022-11-22T08:13:40.405Z,4.40
2022-11-22T08:16:11.731Z,5.38
2022-11-22T08:18:40.340Z,3.13
2022-11-22T08:21:10.012Z,2.92
2022-11-22T08:23:38.872Z,2.05
2022-11-22T08:26:08.376Z,4.72
2022-11-22T08:28:36.173Z,13.80
2022-11-22T08:31:09.162Z,2.50
2022-11-22T08:33:36.718Z,4.32
2022-11-22T08:36:04.439Z,3.45
2022-11-22T08:38:31.705Z,3.50
2022-11-22T08:40:59.169Z,3.67
2022-11-22T08:43:26.611Z,3.45
2022-11-22T08:45:59.731Z,2.55
2022-11-22T08:48:28.215Z,3.15
2022-11-22T08:51:01.520Z,3.78
2022-11-22T08:53:30.052Z,3.90
2022-11-22T08:56:01.060Z,1.95
2022-11-22T08:58:31.167Z,5.20
2022-11-22T09:01:11.345Z,3.35
2022-11-22T09:03:38.703Z,2.15
2022-11-22T09:09:21.982Z,2.72
2022-11-22T09:11:46.937Z,3.15
2022-11-22T09:14:14.254Z,3.05
2022-11-22T09:16:41.502Z,5.15
2022-11-22T09:19:08.722Z,3.10
2022-11-22T09:21:35.994Z,4.40
2022-11-22T09:24:03.470Z,3.72
2022-11-22T09:26:31.019Z,3.78
2022-11-22T09:28:58.296Z,2.30
2022-11-22T09:31:25.701Z,7.03
2022-11-22T09:33:53.019Z,2.97
2022-11-22T09:36:24.126Z,4.13
2022-11-22T09:38:52.323Z,7.47
2022-11-22T09:41:53.078Z,9.82
2022-11-22T09:47:36.615Z,8.52
2022-11-22T09:50:29.635Z,16.38
2022-11-22T09:53:05.303Z,6.28
2022-11-22T09:55:48.431Z,2.85
2022-11-22T09:58:48.995Z,6.10
2022-11-22T10:01:39.259Z,3.17
2022-11-22T10:04:25.972Z,2.92
2022-11-22T10:07:05.991Z,2.88
2022-11-22T10:09:58.681Z,2.50
2022-11-22T10:12:46.068Z,2.83
2022-11-22T10:15:48.041Z,3.88
2022-11-22T10:18:34.544Z,4.75
2022-11-22T10:21:01.833Z,4.88
2022-11-22T10:23:29.404Z,4.57
2022-11-22T10:26:13.259Z,3.05
2022-11-22T10:28:54.310Z,4.32
2022-11-22T10:31:44.591Z,3.85
2022-11-22T10:34:57.491Z,4.28
2022-11-22T10:37:35.848Z,4.50
2022-11-22T10:40:12.506Z,3.97
2022-11-22T10:43:07.402Z,4.47
2022-11-22T10:45:43.157Z,4.40
2022-11-22T10:48:48.682Z,6.88
2022-11-22T10:51:49.071Z,2.28
2022-11-22T10:54:46.562Z,5.43
2022-11-22T10:57:19.300Z,4.60
2022-11-22T11:00:21.215Z,4.50
2022-11-22T11:03:00.124Z,5.40
2022-11-22T11:12:19.337Z,2.92
2022-11-22T11:14:53.153Z,3.47
2022-11-22T11:17:33.653Z,2.58
2022-11-22T11:20:07.266Z,4.38
2022-11-22T11:23:12.528Z,4.00
2022-11-22T11:25:40.934Z,4.55
2022-11-22T11:28:16.253Z,4.30
2022-11-22T11:30:50.323Z,3.03
2022-11-22T11:33:38.165Z,3.22
2022-11-22T11:36:17.650Z,2.03
2022-11-22T11:38:44.683Z,4.65
2022-11-22T11:41:29.972Z,5.10
2022-11-22T11:44:04.004Z,3.08
2022-11-22T11:46:46.303Z,4.85
2022-11-22T11:49:21.436Z,5.35
2022-11-22T11:52:01.595Z,4.97
2022-11-22T11:54:48.320Z,5.60
2022-11-22T11:57:22.801Z,6.05
2022-11-22T11:59:52.322Z,3.60
2022-11-22T12:02:40.657Z,3.47
2022-11-22T12:05:28.444Z,3.30
2022-11-22T12:07:56.554Z,1.65
2022-11-22T12:10:55.143Z,2.50
2022-11-22T12:14:04.688Z,3.25
2022-11-22T12:16:36.781Z,3.67
2022-11-22T12:19:29.178Z,4.85
2022-11-22T12:22:29.374Z,3.45
2022-11-22T12:25:37.620Z,2.85
2022-11-22T12:28:27.709Z,2.80
2022-11-22T12:31:21.025Z,2.20
2022-11-22T12:33:56.289Z,2.78
2022-11-22T12:36:47.494Z,2.88
2022-11-22T12:39:25.047Z,3.00
2022-11-22T12:42:31.747Z,5.78
2022-11-22T12:45:10.941Z,5.38
2022-11-22T12:47:42.043Z,7.47
2022-11-22T12:50:20.831Z,4.95
2022-11-22T12:53:17.757Z,5.38
2022-11-22T12:56:31.419Z,5.60
2022-11-22T12:59:11.875Z,5.95
2022-11-22T13:02:00.552Z,4.75
2022-11-22T13:05:19.976Z,6.95
2022-11-22T13:08:06.356Z,5.65
2022-11-22T13:10:53.566Z,5.22
2022-11-22T13:13:45.272Z,4.78
2022-11-22T13:16:13.996Z,4.82
2022-11-22T13:19:02.940Z,5.25
2022-11-22T13:22:17.229Z,3.63
2022-11-22T13:24:59.458Z,4.45
2022-11-22T13:27:36.105Z,5.57
2022-11-22T13:30:04.840Z,3.78
2022-11-22T13:32:36.380Z,3.70
2022-11-22T13:35:11.960Z,4.40
2022-11-22T13:37:46.346Z,3.08
2022-11-22T13:40:16.495Z,2.80
2022-11-22T13:42:43.934Z,5.65
2022-11-22T13:45:24.956Z,3.20
2022-11-22T13:47:52.938Z,3.78
2022-11-22T13:50:59.749Z,4.75
2022-11-22T13:53:37.112Z,4.63
2022-11-22T13:56:16.533Z,15.48
2022-11-22T13:59:15.669Z,3.88
2022-11-22T14:01:42.830Z,4.70
2022-11-22T14:04:42.058Z,3.92
2022-11-22T14:07:12.600Z,3.25
2022-11-22T14:09:51.833Z,4.03
2022-11-22T14:12:46.572Z,5.88
2022-11-22T14:15:26.039Z,3.25
2022-11-22T14:18:22.511Z,4.47
2022-11-22T14:21:29.081Z,5.57
2022-11-22T14:24:16.756Z,2.72
2022-11-22T14:27:20.469Z,4.15
2022-11-22T14:30:03.176Z,3.30
2022-11-22T14:33:05.631Z,3.15
2022-11-22T14:35:39.171Z,4.03
2022-11-22T14:38:28.730Z,2.75
2022-11-22T14:41:40.159Z,5.00
2022-11-22T14:44:07.384Z,3.22
2022-11-22T14:46:54.100Z,2.78
2022-11-22T14:49:48.484Z,2.95
2022-11-22T14:52:29.860Z,3.88
2022-11-22T14:55:06.041Z,3.13
2022-11-22T14:57:36.925Z,3.10
2022-11-22T15:00:24.160Z,4.50
2022-11-22T15:03:13.054Z,3.60
2022-11-22T15:09:10.290Z,3.40
2022-11-22T15:09:52.605Z,3.05
2022-11-22T15:12:47.537Z,4.32
2022-11-22T15:57:32.468Z,4.85
2022-11-22T16:00:00.218Z,4.10
2022-11-22T16:02:32.005Z,14.18
2022-11-22T16:06:09.639Z,24.45
2022-11-22T16:07:57.993Z,14.10
2022-11-22T16:10:39.792Z,16.85
2022-11-22T16:13:19.342Z,10.10
2022-11-22T16:16:10.534Z,13.82
2022-11-22T16:18:44.684Z,11.88
2022-11-22T16:21:11.973Z,6.90
2022-11-22T16:23:45.365Z,8.52
2022-11-22T16:26:22.171Z,10.60
2022-11-22T16:28:52.568Z,6.60
2022-11-22T16:31:31.923Z,7.13
2022-11-22T16:33:59.783Z,6.97
2022-11-22T16:36:30.337Z,5.90
2022-11-22T16:38:57.745Z,7.93
2022-11-22T16:41:30.123Z,20.85
2022-11-22T16:44:02.203Z,48.00
2022-11-22T16:46:30.233Z,50.70
2022-11-22T16:48:57.584Z,57.17
2022-11-22T16:51:28.601Z,45.08
2022-11-22T16:54:00.549Z,24.50
2022-11-22T16:56:30.448Z,12.68
2022-11-22T16:58:58.755Z,9.43
2022-11-22T17:01:32.830Z,10.30
2022-11-22T17:04:03.034Z,16.02
2022-11-22T17:06:31.910Z,17.20
2022-11-22T17:09:00.514Z,12.07
2022-11-22T17:11:31.509Z,11.98
2022-11-22T17:14:00.308Z,9.65
2022-11-22T17:16:29.369Z,11.65
2022-11-22T17:18:57.023Z,8.93
2022-11-22T17:21:37.602Z,11.68
2022-11-22T17:24:17.326Z,15.05
2022-11-22T17:26:44.788Z,15.32
2022-11-22T17:29:34.876Z,13.60
2022-11-22T17:31:59.277Z,14.98
2022-11-22T17:34:26.503Z,18.63
2022-11-22T17:36:53.732Z,17.58
2022-11-22T17:39:20.970Z,18.40
2022-11-22T17:41:51.124Z,16.38
2022-11-22T17:44:18.886Z,21.83
2022-11-22T17:46:47.263Z,25.73
2022-11-22T17:49:16.376Z,18.33
2022-11-22T17:51:44.209Z,20.33
2022-11-22T17:54:11.556Z,20.55
2022-11-22T17:56:39.011Z,22.17
2022-11-22T17:59:06.894Z,22.02
2022-11-22T18:01:36.870Z,21.17
2022-11-22T18:04:04.296Z,17.05
2022-11-22T18:06:32.209Z,15.00
2022-11-22T18:09:00.892Z,18.23
2022-11-22T18:11:28.246Z,16.83
2022-11-22T18:13:55.483Z,21.75
2022-11-22T18:16:28.647Z,25.17
2022-11-22T18:18:58.060Z,20.77
2022-11-22T18:21:32.179Z,20.98
2022-11-22T18:24:00.883Z,22.40
2022-11-22T18:26:43.959Z,22.70
2022-11-22T18:32:01.911Z,28.48
2022-11-22T18:34:30.497Z,28.27
2022-11-22T18:37:03.550Z,27.08
2022-11-22T18:39:35.625Z,27.55
2022-11-22T18:42:14.898Z,27.55
2022-11-22T18:44:42.473Z,24.95
2022-11-22T18:47:10.049Z,31.45
2022-11-22T18:49:37.749Z,37.15
2022-11-22T18:52:05.689Z,39.78
2022-11-22T18:54:33.633Z,35.22
2022-11-22T18:57:01.187Z,27.45
2022-11-22T18:59:28.689Z,31.17
2022-11-22T19:01:55.962Z,31.45
2022-11-22T19:04:23.346Z,31.77
2022-11-22T19:06:51.438Z,37.28
2022-11-22T19:09:18.719Z,31.45
2022-11-22T19:11:45.948Z,33.60
2022-11-22T19:14:13.288Z,34.83
2022-11-22T19:16:40.653Z,34.05
2022-11-22T19:19:12.240Z,37.15
2022-11-22T19:21:39.719Z,55.70
2022-11-22T19:24:06.961Z,45.45
2022-11-22T19:26:34.953Z,47.80
2022-11-22T19:29:02.902Z,39.80
2022-11-22T19:31:31.587Z,45.05
2022-11-22T19:33:59.994Z,42.83
2022-11-22T19:36:33.378Z,40.17
2022-11-22T19:39:05.675Z,41.67
2022-11-22T19:41:33.535Z,40.95
2022-11-22T19:44:00.939Z,54.83
2022-11-22T19:46:29.265Z,44.88
2022-11-22T19:48:59.676Z,41.50
2022-11-22T19:51:29.506Z,43.65
2022-11-22T19:53:59.672Z,49.63
2022-11-22T19:56:30.693Z,45.30
2022-11-22T19:59:00.094Z,46.22
2022-11-22T20:01:31.033Z,43.10
2022-11-22T20:04:03.541Z,43.50
2022-11-22T20:06:31.797Z,41.33
2022-11-22T20:09:16.822Z,45.22
2022-11-22T20:11:45.616Z,44.88
2022-11-22T20:14:12.942Z,43.25
2022-11-22T20:16:43.321Z,40.40
2022-11-22T20:19:12.519Z,52.38
2022-11-22T20:21:40.541Z,55.00
2022-11-22T20:24:08.553Z,63.72
2022-11-22T20:26:36.451Z,57.17
2022-11-22T20:29:11.297Z,49.78
2022-11-22T20:31:38.951Z,52.92
2022-11-22T20:34:07.446Z,35.03
2022-11-22T20:36:36.173Z,39.08
2022-11-22T20:39:08.599Z,39.60
2022-11-22T20:41:39.053Z,38.95
2022-11-22T20:44:07.250Z,31.92
2022-11-22T20:46:37.826Z,41.72
2022-11-22T20:49:05.435Z,40.28
2022-11-22T20:51:36.032Z,40.88
2022-11-22T20:54:03.578Z,42.38
2022-11-22T20:56:31.126Z,34.30
2022-11-22T20:58:58.419Z,34.78
2022-11-22T21:01:29.525Z,30.60
2022-11-22T21:03:56.966Z,33.90
2022-11-22T21:06:27.624Z,33.95
2022-11-22T21:08:55.653Z,32.28
2022-11-22T21:11:29.375Z,32.03
2022-11-22T21:13:58.551Z,31.88
2022-11-22T21:16:28.941Z,29.38
2022-11-22T21:19:01.671Z,34.00
2022-11-22T21:21:31.779Z,30.25
2022-11-22T21:24:01.471Z,32.27
2022-11-22T21:26:29.335Z,32.00
2022-11-22T21:28:57.946Z,32.42
2022-11-22T21:31:25.701Z,27.30
2022-11-22T21:33:53.875Z,27.98
2022-11-22T21:36:21.937Z,31.23
2022-11-22T21:38:49.453Z,33.45
2022-11-22T21:46:35.708Z,29.63
2022-11-22T21:49:03.097Z,24.05
2022-11-22T21:51:30.430Z,25.13
2022-11-22T21:53:59.329Z,28.48
2022-11-22T21:56:27.813Z,26.35
2022-11-22T21:58:55.206Z,29.80
2022-11-22T22:01:23.497Z,24.25
2022-11-22T22:03:51.172Z,29.70
2022-11-22T22:06:19.075Z,25.13
2022-11-22T22:08:46.307Z,26.15
2022-11-22T22:11:13.761Z,26.10
2022-11-22T22:13:40.994Z,27.05
2022-11-22T22:16:13.095Z,28.27
2022-11-22T22:18:40.397Z,26.70
2022-11-22T22:21:10.570Z,27.92
2022-11-22T22:23:40.327Z,30.65
2022-11-22T22:26:12.552Z,28.93
2022-11-22T22:28:40.892Z,28.80
2022-11-22T22:31:17.059Z,27.65
2022-11-22T22:33:45.819Z,28.58
2022-11-22T22:36:13.837Z,26.27
2022-11-22T22:38:41.604Z,30.65
2022-11-22T22:41:12.817Z,28.83
2022-11-22T22:43:46.205Z,27.88
2022-11-22T22:46:22.894Z,31.35
2022-11-22T22:48:51.006Z,30.73
2022-11-22T22:51:31.645Z,30.55
2022-11-22T22:54:01.132Z,27.25
2022-11-22T22:56:30.719Z,34.78
2022-11-22T22:59:00.848Z,27.70
2022-11-22T23:01:31.076Z,29.42
2022-11-22T23:04:01.085Z,26.35
2022-11-22T23:06:34.971Z,32.55
2022-11-22T23:09:03.985Z,31.35
2022-11-22T23:11:51.496Z,27.13
2022-11-22T23:14:22.497Z,22.83
2022-11-22T23:16:54.556Z,27.90
2022-11-22T23:19:25.325Z,24.38
2022-11-22T23:21:53.245Z,28.67
2022-11-22T23:24:20.609Z,20.35
2022-11-22T23:26:48.132Z,24.98
2022-11-22T23:29:15.558Z,23.95
2022-11-22T23:31:42.882Z,30.00
2022-11-22T23:34:11.552Z,23.52
2022-11-22T23:36:41.022Z,22.55
2022-11-22T23:39:09.333Z,26.70
2022-11-22T23:41:36.552Z,49.63
2022-11-22T23:44:04.037Z,65.40
2022-11-22T23:46:31.250Z,59.28
2022-11-22T23:49:01.333Z,55.60
2022-11-22T23:51:31.267Z,40.65
2022-11-22T23:54:05.027Z,41.10
2022-11-22T23:56:34.887Z,36.65
2022-11-22T23:59:05.165Z,32.83
